Time;durP1;ratioP1;P1;durP2;ratioP2;P2;SDS_P1;SDS_P2;PMS_P1;PMS_P2;Temp;Humidity;BMP_temperature;BMP_pressure;BME280_temperature;BME280_humidity;BME280_pressure;Samples;Min_cycle;Max_cycle;Signal;HPM_P1;HPM_P2
2021/06/17 00:00:46;;;;;;;6.67;5.78;;;;;;;19.55;69.99;100305.28;1814487;77;22171;-56
2021/06/17 00:03:19;;;;;;;7.53;5.83;;;;;;;19.60;69.79;100311.70;1834569;77;22203;-56
2021/06/17 00:05:52;;;;;;;7.75;6.15;;;;;;;19.59;69.79;100314.86;1820722;77;22202;-60
2021/06/17 00:08:25;;;;;;;11.53;6.45;;;;;;;19.57;69.87;100308.73;1834481;77;22159;-60
2021/06/17 00:11:12;;;;;;;7.78;5.22;;;;;;;19.50;69.96;100305.98;1765985;80;21232;-57
2021/06/17 00:13:45;;;;;;;7.03;4.92;;;;;;;19.51;69.99;100293.48;1825023;77;22163;-56
2021/06/17 00:16:18;;;;;;;7.15;4.80;;;;;;;19.47;70.04;100282.11;1808746;77;22217;-60
2021/06/17 00:19:04;;;;;;;8.28;4.55;;;;;;;19.42;70.00;100289.03;1761084;81;21151;-58
2021/06/17 00:21:37;;;;;;;5.60;4.10;;;;;;;19.42;69.92;100286.81;1804450;77;22214;-56
2021/06/17 00:24:10;;;;;;;5.83;4.08;;;;;;;19.35;69.72;100296.06;1820118;77;22207;-57
2021/06/17 00:26:56;;;;;;;8.63;4.10;;;;;;;19.29;69.62;100295.43;1761670;80;21170;-62
2021/06/17 00:29:30;;;;;;;7.17;4.03;;;;;;;19.31;69.66;100288.22;1820815;77;22555;-57
2021/06/17 00:32:04;;;;;;;5.87;4.15;;;;;;;19.31;69.64;100287.36;1825708;77;22120;-57
2021/06/17 00:34:50;;;;;;;5.08;3.42;;;;;;;19.26;69.58;100285.39;1790471;80;21352;-62
2021/06/17 00:37:23;;;;;;;10.68;4.37;;;;;;;19.26;69.45;100275.57;1829597;77;22115;-57
2021/06/17 00:39:58;;;;;;;4.97;3.87;;;;;;;19.20;69.65;100275.03;1812829;77;22629;-57
2021/06/17 00:42:47;;;;;;;9.83;3.77;;;;;;;19.20;69.54;100283.03;1756257;81;21554;-58
2021/06/17 00:45:24;;;;;;;5.05;3.60;;;;;;;19.20;69.49;100283.03;1821603;77;22171;-61
2021/06/17 00:47:58;;;;;;;5.25;3.22;;;;;;;19.16;69.42;100291.19;1851809;77;22179;-61
2021/06/17 00:50:35;;;;;;;4.67;3.20;;;;;;;19.26;69.12;100286.24;1815910;77;22201;-57
2021/06/17 00:53:13;;;;;;;4.12;3.15;;;;;;;19.32;68.78;100288.61;1805180;77;22138;-57
2021/06/17 00:55:46;;;;;;;7.20;3.50;;;;;;;19.26;68.85;100286.24;1811109;77;22154;-57
2021/06/17 00:58:19;;;;;;;5.00;3.12;;;;;;;19.25;68.70;100285.00;1833761;77;22152;-57
2021/06/17 01:01:06;;;;;;;7.30;3.40;;;;;;;19.22;68.53;100285.16;1768593;80;21165;-58
2021/06/17 01:03:39;;;;;;;5.28;2.83;;;;;;;19.18;68.24;100279.12;1833683;77;22192;-61
2021/06/17 01:06:12;;;;;;;4.83;3.08;;;;;;;19.04;68.59;100279.78;1827805;77;22210;-60
2021/06/17 01:09:05;;;;;;;5.22;3.30;;;;;;;18.99;68.72;100285.35;1832456;77;22202;-57
2021/06/17 01:11:55;;;;;;;6.03;3.17;;;;;;;18.97;68.81;100283.23;1819993;77;22217;-57
2021/06/17 01:14:55;;;;;;;7.53;3.37;;;;;;;18.93;68.67;100280.28;1771279;80;21178;-58
2021/06/17 01:17:28;;;;;;;4.37;3.20;;;;;;;18.84;69.00;100280.27;1817387;77;22140;-61
2021/06/17 01:20:15;;;;;;;5.30;3.47;;;;;;;18.89;68.97;100286.70;1844194;77;22233;-57
2021/06/17 01:23:02;;;;;;;6.35;3.75;;;;;;;18.86;69.08;100289.06;1824574;77;22162;-57
2021/06/17 01:25:56;;;;;;;5.92;3.05;;;;;;;18.87;69.17;100283.24;1836453;77;22205;-57
2021/06/17 01:28:42;;;;;;;6.05;3.47;;;;;;;18.87;69.10;100276.12;1819951;77;22149;-57
2021/06/17 01:31:25;;;;;;;10.30;3.45;;;;;;;18.83;68.96;100275.00;1805935;77;22662;-60
2021/06/17 01:34:11;;;;;;;5.58;3.30;;;;;;;18.73;69.13;100283.46;1764850;81;21105;-58
2021/06/17 01:36:48;;;;;;;7.50;3.33;;;;;;;18.77;69.20;100286.83;1827135;77;22622;-57
2021/06/17 01:39:21;;;;;;;6.10;3.70;;;;;;;18.73;69.28;100294.58;1834496;77;22180;-57
2021/06/17 01:41:54;;;;;;;4.70;3.60;;;;;;;18.69;69.46;100300.54;1813424;77;22614;-57
2021/06/17 01:44:40;;;;;;;8.08;4.05;;;;;;;18.58;69.72;100311.69;1765957;80;21304;-62
2021/06/17 01:47:13;;;;;;;7.17;3.72;;;;;;;18.66;69.44;100322.45;1827295;77;22143;-57
2021/06/17 01:49:46;;;;;;;6.67;3.55;;;;;;;18.69;69.46;100332.98;1827047;77;22532;-60
2021/06/17 01:52:21;;;;;;;6.53;3.42;;;;;;;18.68;69.41;100333.47;1852959;77;22155;-57
2021/06/17 01:55:09;;;;;;;5.20;3.20;;;;;;;18.64;69.50;100341.66;1762803;80;22334;-61
2021/06/17 01:57:42;;;;;;;6.35;3.60;;;;;;;18.70;69.36;100330.26;1834496;77;22575;-60
2021/06/17 02:00:16;;;;;;;7.97;3.95;;;;;;;18.74;69.21;100340.30;1822022;77;22218;-60
2021/06/17 02:02:49;;;;;;;8.63;3.25;;;;;;;18.73;69.18;100326.11;1846945;77;22166;-58
2021/06/17 02:05:22;;;;;;;4.53;3.05;;;;;;;18.73;69.10;100323.91;1804018;77;22200;-60
2021/06/17 02:07:56;;;;;;;7.83;3.90;;;;;;;18.71;69.08;100322.66;1831503;77;22167;-60
2021/06/17 02:10:29;;;;;;;6.83;3.33;;;;;;;18.70;69.09;100314.72;1819790;77;22175;-57
2021/06/17 02:13:03;;;;;;;7.37;3.60;;;;;;;18.69;69.07;100316.53;1819109;77;22637;-57
2021/06/17 02:15:36;;;;;;;4.60;3.33;;;;;;;18.66;69.02;100315.34;1815521;77;22193;-60
2021/06/17 02:18:25;;;;;;;9.93;3.75;;;;;;;18.57;69.10;100310.44;1764631;81;21577;-59
2021/06/17 02:20:58;;;;;;;4.55;3.00;;;;;;;18.42;69.73;100308.88;1811363;77;22520;-58
2021/06/17 02:23:32;;;;;;;4.78;3.05;;;;;;;18.43;69.82;100313.75;1826831;77;22203;-60
2021/06/17 02:26:05;;;;;;;6.87;4.08;;;;;;;18.42;69.75;100315.53;1791805;77;22257;-57
2021/06/17 02:28:51;;;;;;;9.15;3.65;;;;;;;18.38;69.80;100319.75;1761819;81;21150;-60
2021/06/17 02:31:29;;;;;;;4.80;3.08;;;;;;;18.48;69.73;100308.20;1793130;77;22225;-58
2021/06/17 02:34:02;;;;;;;5.72;3.45;;;;;;;18.50;69.74;100307.66;1825771;77;22178;-57
2021/06/17 02:36:48;;;;;;;7.92;4.15;;;;;;;18.45;69.68;100313.22;1764843;80;21189;-58
2021/06/17 02:39:24;;;;;;;5.70;3.52;;;;;;;18.49;69.75;100313.92;1831399;77;22186;-58
2021/06/17 02:41:58;;;;;;;7.15;3.17;;;;;;;18.50;69.76;100323.20;1852895;77;22559;-60
2021/06/17 02:44:44;;;;;;;6.28;3.42;;;;;;;18.46;69.87;100336.27;1714841;83;21218;-61
2021/06/17 02:47:17;;;;;;;6.22;3.60;;;;;;;18.51;69.87;100346.70;1834531;77;22179;-60
2021/06/17 02:49:50;;;;;;;4.92;3.72;;;;;;;18.53;69.86;100345.70;1815655;77;22741;-59
2021/06/17 02:52:40;;;;;;;4.90;3.47;;;;;;;18.50;69.85;100342.30;1761260;80;21672;-61
2021/06/17 02:55:13;;;;;;;10.15;3.58;;;;;;;18.49;69.95;100343.23;1823458;77;22202;-60
2021/06/17 02:58:12;;;;;;;7.15;3.62;;;;;;;18.51;70.05;100342.70;1830790;77;22175;-60
2021/06/17 03:01:02;;;;;;;8.33;3.58;;;;;;;18.46;70.14;100352.25;1763160;80;21166;-59
2021/06/17 03:03:40;;;;;;;6.28;3.85;;;;;;;18.50;70.31;100348.96;1827746;77;22155;-58
2021/06/17 03:06:19;;;;;;;6.10;3.98;;;;;;;18.51;70.30;100353.36;1809743;77;22633;-60
2021/06/17 03:09:10;;;;;;;5.85;3.83;;;;;;;18.47;70.19;100355.77;1739246;81;21128;-61
2021/06/17 03:11:45;;;;;;;5.50;3.75;;;;;;;18.49;70.43;100350.78;1822600;77;22166;-60
2021/06/17 03:14:26;;;;;;;8.85;5.37;;;;;;;18.50;70.49;100345.84;1818841;77;28003;-60
2021/06/17 03:17:11;;;;;;;5.95;4.05;;;;;;;18.52;70.50;100353.75;1748572;81;21142;-59
2021/06/17 03:19:46;;;;;;;6.47;3.83;;;;;;;18.60;70.47;100349.39;1834781;77;22261;-60
2021/06/17 03:22:19;;;;;;;7.35;4.10;;;;;;;18.64;70.56;100355.86;1817219;77;22597;-60
2021/06/17 03:25:08;;;;;;;5.17;3.92;;;;;;;18.61;70.62;100352.45;1762283;80;21192;-61
2021/06/17 03:27:42;;;;;;;4.87;3.95;;;;;;;18.69;70.78;100346.31;1823699;77;22159;-57
2021/06/17 03:30:18;;;;;;;5.35;3.72;;;;;;;18.72;70.81;100339.50;1819416;77;22245;-60
2021/06/17 03:33:05;;;;;;;6.00;3.95;;;;;;;18.72;70.86;100356.83;1737235;81;21178;-61
2021/06/17 03:35:38;;;;;;;5.78;4.00;;;;;;;18.82;70.87;100347.47;1827418;77;22181;-60
2021/06/17 03:38:11;;;;;;;9.43;4.33;;;;;;;18.87;70.91;100352.12;1823581;77;22143;-58
2021/06/17 03:40:45;;;;;;;7.28;3.80;;;;;;;18.94;71.01;100357.16;1816099;77;22203;-60
2021/06/17 03:43:18;;;;;;;5.67;3.67;;;;;;;18.97;71.11;100363.23;1832649;77;22175;-61
2021/06/17 03:45:53;;;;;;;5.90;3.75;;;;;;;19.07;71.03;100363.65;1805240;77;22233;-61
2021/06/17 03:48:26;;;;;;;13.30;4.35;;;;;;;19.12;71.09;100354.96;1851844;77;22586;-58
2021/06/17 03:51:02;;;;;;;7.58;4.12;;;;;;;19.17;71.20;100349.42;1805279;77;22186;-60
2021/06/17 03:53:36;;;;;;;5.97;4.47;;;;;;;19.22;71.29;100354.03;1824984;77;22123;-58
2021/06/17 03:56:09;;;;;;;5.65;4.20;;;;;;;19.27;71.29;100356.01;1818478;77;22224;-61
2021/06/17 03:58:43;;;;;;;5.60;3.67;;;;;;;19.37;71.34;100360.45;1834503;77;22176;-60
2021/06/17 04:01:16;;;;;;;8.88;6.45;;;;;;;19.43;71.48;100359.27;1807137;77;22175;-61
2021/06/17 04:04:02;;;;;;;5.58;5.08;;;;;;;19.45;71.40;100359.57;1761422;81;21569;-62
2021/06/17 04:06:36;;;;;;;4.87;4.10;;;;;;;19.52;71.51;100363.27;1800618;77;22209;-61
2021/06/17 04:09:10;;;;;;;5.47;4.20;;;;;;;19.57;71.51;100366.13;1828582;77;22187;-61
2021/06/17 04:12:01;;;;;;;5.08;3.85;;;;;;;19.56;71.60;100373.73;1752306;81;21138;-58
2021/06/17 04:14:36;;;;;;;8.88;4.30;;;;;;;19.66;71.65;100370.13;1828698;77;22147;-61
2021/06/17 04:17:10;;;;;;;8.98;4.50;;;;;;;19.73;71.61;100370.21;1834442;77;22566;-57
2021/06/17 04:19:43;;;;;;;7.20;3.92;;;;;;;19.80;71.56;100376.09;1810352;77;22142;-58
2021/06/17 04:22:17;;;;;;;6.20;3.85;;;;;;;19.87;71.67;100378.84;1823460;77;22185;-58
2021/06/17 04:24:54;;;;;;;7.37;4.28;;;;;;;19.94;71.64;100373.23;1821159;77;22645;-62
2021/06/17 04:27:27;;;;;;;6.70;4.22;;;;;;;19.98;71.62;100371.64;1833838;77;22163;-61
2021/06/17 04:30:00;;;;;;;6.28;4.60;;;;;;;20.02;71.78;100369.69;1830817;77;22587;-61
2021/06/17 04:32:47;;;;;;;5.60;4.25;;;;;;;20.06;71.52;100370.78;1762594;80;21144;-62
2021/06/17 04:35:21;;;;;;;4.85;3.75;;;;;;;20.14;71.60;100366.84;1839733;77;22205;-61
2021/06/17 04:37:54;;;;;;;4.78;3.70;;;;;;;20.19;71.42;100364.31;1833625;77;22607;-58
2021/06/17 04:40:28;;;;;;;5.78;3.98;;;;;;;20.24;71.39;100364.09;1803968;77;22209;-61
2021/06/17 04:43:02;;;;;;;5.25;4.33;;;;;;;20.40;71.14;100356.56;1817701;77;22180;-62
2021/06/17 04:45:35;;;;;;;6.65;4.35;;;;;;;20.48;71.08;100353.00;1811184;77;22214;-62
2021/06/17 04:48:26;;;;;;;7.58;4.20;;;;;;;20.54;71.24;100351.34;1744848;81;21138;-59
2021/06/17 04:51:00;;;;;;;6.42;4.17;;;;;;;20.67;71.04;100341.31;1811692;77;22202;-61
2021/06/17 04:53:33;;;;;;;4.95;4.37;;;;;;;20.73;71.32;100342.31;1834445;77;22136;-58
2021/06/17 04:56:19;;;;;;;29.92;9.98;;;;;;;20.74;71.46;100344.05;1744911;81;21638;-62
2021/06/17 04:58:52;;;;;;;67.20;22.73;;;;;;;20.89;71.31;100351.72;1816877;77;22193;-57
2021/06/17 05:01:25;;;;;;;18.30;10.30;;;;;;;20.98;71.27;100348.98;1785493;77;22623;-60
2021/06/17 05:03:58;;;;;;;7.17;5.10;;;;;;;21.09;71.04;100346.08;1824679;77;22231;-59
2021/06/17 05:06:34;;;;;;;49.58;23.22;;;;;;;21.15;70.57;100346.69;1799668;77;22338;-61
2021/06/17 05:12:18;;;;;;;10.98;5.80;;;;;;;21.20;70.25;100354.83;1819284;77;23036;-60
2021/06/17 05:14:51;;;;;;;5.62;4.50;;;;;;;21.22;70.13;100358.28;1811570;77;22270;-60
2021/06/17 05:17:24;;;;;;;6.85;3.83;;;;;;;21.22;69.99;100360.11;1815710;77;22222;-60
2021/06/17 05:19:58;;;;;;;129.57;30.85;;;;;;;21.22;69.87;100365.46;1807015;77;22701;-61
2021/06/17 05:22:31;;;;;;;28.65;11.48;;;;;;;21.27;69.73;100365.19;1820334;77;22163;-60
2021/06/17 05:25:06;;;;;;;20.12;10.23;;;;;;;21.30;69.49;100360.53;1833976;77;22217;-60
2021/06/17 05:27:39;;;;;;;7.85;5.50;;;;;;;21.23;69.56;100376.06;1840939;77;22708;-62
2021/06/17 05:30:25;;;;;;;5.22;4.17;;;;;;;21.19;69.70;100382.58;1779711;80;21149;-61
2021/06/17 05:32:58;;;;;;;5.55;4.25;;;;;;;21.17;70.28;100392.50;1834502;77;22176;-61
2021/06/17 05:35:31;;;;;;;4.72;3.90;;;;;;;21.20;70.56;100394.97;1804424;77;22208;-56
2021/06/17 05:38:05;;;;;;;5.20;4.22;;;;;;;21.33;70.46;100402.31;1817523;77;22656;-56
2021/06/17 05:40:38;;;;;;;6.62;4.58;;;;;;;21.42;70.41;100392.88;1817452;77;22186;-61
2021/06/17 05:43:25;;;;;;;4.80;3.90;;;;;;;21.49;70.14;100399.16;1766530;80;21280;-61
2021/06/17 05:45:58;;;;;;;6.12;4.22;;;;;;;21.55;69.98;100395.24;1811499;77;22154;-56
2021/06/17 05:48:32;;;;;;;6.05;4.22;;;;;;;21.62;69.86;100394.47;1834463;77;22172;-57
2021/06/17 05:51:18;;;;;;;9.45;3.92;;;;;;;21.61;69.66;100398.06;1768182;80;21187;-61
2021/06/17 05:53:51;;;;;;;23.18;17.02;;;;;;;21.70;69.62;100392.17;1826989;77;22176;-58
2021/06/17 05:56:24;;;;;;;26.37;23.60;;;;;;;21.77;69.64;100395.38;1798153;77;22202;-57
2021/06/17 05:58:57;;;;;;;194.07;162.37;;;;;;;21.71;69.89;100391.22;1834459;77;22176;-57
2021/06/17 06:01:44;;;;;;;38.20;34.33;;;;;;;21.80;69.62;100388.00;1727761;83;21755;-58
2021/06/17 06:04:17;;;;;;;15.10;13.55;;;;;;;21.76;69.81;100387.80;1826377;77;22115;-57
2021/06/17 06:06:50;;;;;;;12.93;8.00;;;;;;;21.77;69.46;100385.50;1834495;77;22175;-57
2021/06/17 06:09:24;;;;;;;7.15;6.25;;;;;;;21.81;69.52;100378.17;1834502;77;22175;-60
2021/06/17 06:12:12;;;;;;;7.03;5.65;;;;;;;21.79;69.46;100376.05;1732919;81;21276;-58
2021/06/17 06:14:45;;;;;;;8.93;5.37;;;;;;;21.87;69.42;100363.53;1803349;77;22681;-60
2021/06/17 06:17:18;;;;;;;56.63;50.00;;;;;;;21.90;69.33;100364.69;1834467;77;22140;-60
2021/06/17 06:20:06;;;;;;;56.68;51.33;;;;;;;21.90;69.08;100360.67;1782074;80;21186;-58
2021/06/17 06:22:41;;;;;;;7.20;6.42;;;;;;;22.09;68.76;100356.39;1808012;77;28058;-57
2021/06/17 06:25:15;;;;;;;6.28;5.33;;;;;;;22.19;68.58;100362.05;1807609;77;28040;-60
2021/06/17 06:27:48;;;;;;;6.33;4.65;;;;;;;22.31;68.23;100360.41;1834476;77;22179;-60
2021/06/17 06:30:22;;;;;;;4.95;4.45;;;;;;;22.36;68.02;100351.16;1815322;77;22213;-60
2021/06/17 06:33:08;;;;;;;5.42;4.92;;;;;;;22.33;67.88;100351.34;1748633;81;21150;-61
2021/06/17 06:35:41;;;;;;;5.28;4.72;;;;;;;22.37;67.91;100351.53;1817100;77;22210;-60
2021/06/17 06:38:14;;;;;;;5.95;4.42;;;;;;;22.38;67.98;100354.59;1825067;77;22158;-57
2021/06/17 06:40:47;;;;;;;5.65;4.42;;;;;;;22.56;68.21;100370.51;1811614;77;22626;-57
2021/06/17 06:43:21;;;;;;;47.78;42.65;;;;;;;22.79;68.39;100364.17;1834421;77;22204;-61
2021/06/17 06:45:55;;;;;;;60.60;53.78;;;;;;;22.93;68.27;100368.19;1814011;77;22206;-57
2021/06/17 06:48:29;;;;;;;297.15;266.20;;;;;;;23.12;68.03;100369.66;1810909;77;22173;-60
2021/06/17 06:51:15;;;;;;;71.47;64.37;;;;;;;23.26;67.55;100383.55;1752668;80;21173;-58
2021/06/17 06:53:48;;;;;;;40.67;36.33;;;;;;;23.43;66.92;100371.22;1852825;77;22199;-57
2021/06/17 06:56:21;;;;;;;48.95;43.87;;;;;;;23.52;66.42;100377.80;1821343;77;22225;-61
2021/06/17 06:58:54;;;;;;;45.65;40.98;;;;;;;23.55;65.51;100370.88;1832633;77;22124;-58
2021/06/17 07:01:40;;;;;;;32.38;29.00;;;;;;;23.53;65.47;100367.42;1726336;83;21327;-62
2021/06/17 07:04:13;;;;;;;21.45;19.27;;;;;;;23.56;65.53;100368.56;1829303;77;22578;-60
2021/06/17 07:06:47;;;;;;;107.45;95.72;;;;;;;23.57;65.06;100367.61;1818982;77;22174;-57
2021/06/17 07:09:20;;;;;;;74.87;61.53;;;;;;;23.60;65.05;100366.05;1852808;77;22155;-61
2021/06/17 07:11:54;;;;;;;285.70;257.37;;;;;;;23.63;65.32;100364.97;1829307;77;22169;-62
2021/06/17 07:14:39;;;;;;;91.65;82.70;;;;;;;23.67;65.00;100369.67;1790982;79;21154;-58
2021/06/17 07:17:13;;;;;;;31.82;27.82;;;;;;;23.75;64.89;100371.36;1826871;77;22174;-56
2021/06/17 07:19:46;;;;;;;11.05;9.60;;;;;;;23.81;64.87;100374.11;1824810;77;22605;-56
2021/06/17 07:22:32;;;;;;;7.75;6.78;;;;;;;23.79;64.51;100383.63;1764601;81;21679;-58
2021/06/17 07:25:07;;;;;;;6.67;5.65;;;;;;;23.83;64.59;100382.45;1824885;77;22190;-61
2021/06/17 07:27:40;;;;;;;5.97;5.22;;;;;;;23.83;64.75;100384.27;1834428;77;23466;-61
2021/06/17 07:30:15;;;;;;;5.35;4.62;;;;;;;23.85;64.89;100390.41;1816393;77;22211;-61
2021/06/17 07:32:48;;;;;;;6.67;4.75;;;;;;;23.85;64.95;100392.59;1834365;77;22156;-60
2021/06/17 07:35:21;;;;;;;7.00;4.45;;;;;;;23.85;65.04;100397.12;1797613;77;22679;-61
2021/06/17 07:38:07;;;;;;;5.85;4.60;;;;;;;23.83;65.15;100401.73;1752862;81;21107;-58
2021/06/17 07:40:42;;;;;;;5.90;4.85;;;;;;;23.86;65.31;100397.50;1817219;77;22202;-61
2021/06/17 07:43:15;;;;;;;5.55;4.67;;;;;;;23.87;65.38;100392.50;1831084;77;22128;-61
2021/06/17 07:46:07;;;;;;;5.08;4.00;;;;;;;23.84;65.28;100385.99;1811325;77;22253;-58
2021/06/17 07:48:40;;;;;;;6.08;4.22;;;;;;;23.78;65.30;100389.97;1832340;77;22178;-61
2021/06/17 07:51:14;;;;;;;7.90;4.35;;;;;;;23.76;65.28;100399.46;1809643;77;22194;-62
2021/06/17 07:53:47;;;;;;;5.67;3.85;;;;;;;23.68;65.16;100391.55;1834433;77;22588;-61
2021/06/17 07:56:33;;;;;;;4.25;3.85;;;;;;;23.63;65.33;100396.36;1763008;80;21166;-57
2021/06/17 07:59:06;;;;;;;5.15;4.10;;;;;;;23.60;65.61;100384.86;1832076;77;22124;-61
2021/06/17 08:01:39;;;;;;;4.90;4.05;;;;;;;23.58;65.62;100389.97;1803872;77;22214;-57
2021/06/17 08:04:12;;;;;;;5.58;4.28;;;;;;;23.57;65.79;100393.13;1852759;77;22178;-56
2021/06/17 08:06:45;;;;;;;4.53;3.75;;;;;;;23.56;66.30;100395.92;1820105;77;22637;-56
2021/06/17 08:09:20;;;;;;;4.42;4.03;;;;;;;23.56;66.73;100396.77;1826744;77;22167;-57
2021/06/17 08:11:54;;;;;;;6.92;4.58;;;;;;;23.74;66.87;100409.95;1811196;77;22210;-56
2021/06/17 08:14:29;;;;;;;7.97;4.97;;;;;;;23.74;67.00;100408.61;1851355;77;22195;-57
2021/06/17 08:17:03;;;;;;;4.92;4.20;;;;;;;23.88;66.54;100415.72;1842271;77;22646;-62
2021/06/17 08:19:36;;;;;;;5.17;4.00;;;;;;;23.90;66.60;100406.58;1830227;77;22222;-60
2021/06/17 08:22:10;;;;;;;5.35;4.30;;;;;;;23.96;66.96;100412.50;1852748;77;22591;-56
2021/06/17 08:24:44;;;;;;;6.80;4.37;;;;;;;24.03;67.02;100418.75;1829828;77;22245;-59
2021/06/17 08:27:17;;;;;;;4.97;4.37;;;;;;;24.04;66.51;100418.26;1841865;77;22120;-61
2021/06/17 08:29:50;;;;;;;5.35;4.37;;;;;;;24.01;66.51;100413.97;1832554;77;22213;-58
2021/06/17 08:32:23;;;;;;;5.97;4.87;;;;;;;23.96;66.46;100420.57;1834494;77;22204;-58
2021/06/17 08:34:56;;;;;;;4.70;4.20;;;;;;;23.91;66.39;100421.73;1845134;77;22209;-59
2021/06/17 08:37:33;;;;;;;7.40;4.60;;;;;;;23.94;66.39;100424.72;1820759;77;22597;-59
2021/06/17 08:40:07;;;;;;;7.47;4.58;;;;;;;23.82;66.89;100430.91;1824938;77;22202;-62
2021/06/17 08:42:40;;;;;;;5.42;4.65;;;;;;;24.23;66.04;100441.20;1852754;77;22186;-61
2021/06/17 08:45:27;;;;;;;7.05;4.72;;;;;;;23.75;67.24;100464.91;1758104;81;21721;-62
2021/06/17 08:48:00;;;;;;;11.60;5.90;;;;;;;23.70;67.24;100460.82;1799601;77;22168;-61
2021/06/17 08:50:33;;;;;;;18.00;7.70;;;;;;;23.68;67.26;100466.28;1836785;77;22209;-65
2021/06/17 08:53:06;;;;;;;8.38;5.20;;;;;;;23.64;67.36;100465.25;1834422;77;22179;-60
2021/06/17 08:55:40;;;;;;;8.60;5.47;;;;;;;23.62;67.44;100468.05;1817399;77;22194;-61
2021/06/17 08:58:13;;;;;;;9.60;6.75;;;;;;;23.54;67.43;100468.54;1852760;77;22684;-66
2021/06/17 09:00:47;;;;;;;8.00;5.85;;;;;;;23.44;67.56;100461.57;1815082;77;22166;-62
2021/06/17 09:03:21;;;;;;;7.67;5.25;;;;;;;23.42;67.32;100456.78;1829581;77;22189;-61
2021/06/17 09:05:56;;;;;;;7.53;6.10;;;;;;;23.36;67.44;100458.52;1823098;77;22630;-61
2021/06/17 09:08:43;;;;;;;6.95;5.55;;;;;;;23.28;67.41;100467.08;1779238;80;21589;-62
2021/06/17 09:11:20;;;;;;;7.50;5.30;;;;;;;23.10;68.05;100462.84;1809061;77;22626;-62
2021/06/17 09:14:18;;;;;;;6.05;5.33;;;;;;;23.09;68.52;100462.00;1832183;77;22124;-61
2021/06/17 09:17:09;;;;;;;5.60;4.90;;;;;;;23.23;68.57;100454.89;1852811;77;22159;-61
2021/06/17 09:19:55;;;;;;;5.92;5.15;;;;;;;23.25;68.70;100464.59;1753823;81;21232;-63
2021/06/17 09:22:28;;;;;;;7.05;5.60;;;;;;;23.29;68.98;100456.72;1834388;77;22152;-62
2021/06/17 09:25:01;;;;;;;6.47;5.75;;;;;;;23.32;69.18;100452.96;1797481;77;22236;-62
2021/06/17 09:27:39;;;;;;;7.28;5.30;;;;;;;23.35;69.12;100446.05;1834340;77;23063;-62
2021/06/17 09:30:19;;;;;;;8.13;5.65;;;;;;;23.36;69.27;100445.09;1807286;77;22228;-62
2021/06/17 09:32:53;;;;;;;6.70;5.37;;;;;;;23.30;69.87;100442.34;1824001;77;22151;-61
2021/06/17 09:35:27;;;;;;;8.13;5.50;;;;;;;23.23;70.19;100434.76;1814101;77;22253;-62
2021/06/17 09:38:05;;;;;;;6.65;5.50;;;;;;;23.36;70.42;100441.06;1836260;77;22167;-63
2021/06/17 09:40:45;;;;;;;6.55;5.85;;;;;;;23.45;70.77;100448.52;1811838;77;22224;-62
2021/06/17 09:43:28;;;;;;;6.60;5.97;;;;;;;23.45;70.64;100456.58;1753474;81;21182;-64
2021/06/17 09:46:05;;;;;;;8.10;5.85;;;;;;;23.54;70.48;100449.73;1812381;77;22174;-61
2021/06/17 09:48:45;;;;;;;6.67;6.08;;;;;;;23.57;70.35;100456.25;1834326;77;22163;-63
2021/06/17 09:54:21;;;;;;;6.80;6.10;;;;;;;23.57;70.44;100446.00;1852782;77;22119;-63
2021/06/17 09:57:04;;;;;;;6.80;5.53;;;;;;;23.54;70.52;100452.42;1840915;77;22112;-63
2021/06/17 09:59:54;;;;;;;7.10;6.03;;;;;;;23.50;70.48;100450.89;1795416;79;21178;-64
2021/06/17 10:02:36;;;;;;;7.00;5.62;;;;;;;23.53;70.45;100442.64;1832234;77;22594;-62
2021/06/17 10:05:18;;;;;;;14.90;6.35;;;;;;;23.51;70.47;100443.72;1824167;77;22626;-65
2021/06/17 10:07:51;;;;;;;8.83;5.72;;;;;;;23.49;70.31;100430.87;1830890;77;22213;-65
2021/06/17 10:10:37;;;;;;;7.75;5.83;;;;;;;23.41;70.49;100422.83;1795801;80;21590;-65
2021/06/17 10:13:11;;;;;;;6.60;5.00;;;;;;;23.35;70.50;100412.98;1820339;77;22181;-63
2021/06/17 10:15:44;;;;;;;6.85;4.70;;;;;;;23.26;70.81;100405.02;1816323;77;22217;-63
2021/06/17 10:18:18;;;;;;;5.15;4.42;;;;;;;23.23;71.27;100399.39;1834410;77;22179;-62
2021/06/17 10:20:52;;;;;;;6.62;5.30;;;;;;;23.26;71.82;100393.82;1808275;77;22210;-63
2021/06/17 10:23:25;;;;;;;5.67;5.05;;;;;;;23.31;71.91;100386.80;1852581;77;22199;-61
2021/06/17 10:26:05;;;;;;;5.42;4.92;;;;;;;23.36;71.87;100376.61;1813076;77;22203;-63
2021/06/17 10:28:44;;;;;;;5.50;4.95;;;;;;;23.34;71.81;100379.87;1830885;77;22124;-63
2021/06/17 10:31:45;;;;;;;6.90;5.42;;;;;;;23.37;72.06;100377.48;1826548;77;22201;-60
2021/06/17 10:34:30;;;;;;;7.33;5.92;;;;;;;23.36;71.77;100377.11;1834544;77;22156;-63
2021/06/17 10:37:25;;;;;;;7.65;6.65;;;;;;;23.30;71.53;100364.93;1834364;77;22184;-62
2021/06/17 10:40:14;;;;;;;5.72;4.85;;;;;;;23.23;71.90;100364.95;1810350;77;22218;-62
2021/06/17 10:42:47;;;;;;;6.15;5.03;;;;;;;23.17;72.46;100361.70;1834434;77;22140;-62
2021/06/17 10:45:41;;;;;;;5.78;5.25;;;;;;;23.15;72.57;100356.04;1812660;77;22210;-63
2021/06/17 10:48:42;;;;;;;5.58;4.50;;;;;;;23.16;72.19;100333.60;1833620;77;22120;-62
2021/06/17 10:51:32;;;;;;;9.05;5.33;;;;;;;23.12;71.95;100340.12;1805500;77;22206;-63
2021/06/17 10:54:05;;;;;;;5.50;4.90;;;;;;;23.08;72.03;100327.41;1817598;77;22571;-62
2021/06/17 10:56:42;;;;;;;6.53;4.50;;;;;;;23.05;71.73;100331.63;1799703;77;22193;-62
2021/06/17 10:59:30;;;;;;;6.47;5.12;;;;;;;22.97;71.98;100335.29;1832727;77;22184;-61
2021/06/17 11:02:20;;;;;;;6.83;5.33;;;;;;;22.90;72.12;100354.09;1788506;80;21096;-61
2021/06/17 11:04:53;;;;;;;5.97;5.37;;;;;;;22.97;71.99;100354.08;1827927;77;22206;-62
2021/06/17 11:07:26;;;;;;;5.95;5.03;;;;;;;23.02;71.98;100360.02;1833031;77;22520;-61
2021/06/17 11:10:01;;;;;;;6.87;5.67;;;;;;;22.89;72.39;100353.24;1826562;77;22206;-62
2021/06/17 11:12:42;;;;;;;7.42;6.72;;;;;;;22.88;72.68;100347.50;1805658;77;27947;-62
2021/06/17 11:15:38;;;;;;;6.10;5.50;;;;;;;22.93;72.64;100357.45;1781582;80;21163;-64
2021/06/17 11:18:11;;;;;;;5.87;5.08;;;;;;;23.08;72.19;100353.37;1812597;77;22163;-62
2021/06/17 11:20:45;;;;;;;5.42;4.92;;;;;;;23.09;72.09;100360.46;1807478;77;22225;-62
2021/06/17 11:23:21;;;;;;;6.17;4.95;;;;;;;23.10;71.99;100362.19;1834597;77;22614;-61
2021/06/17 11:25:59;;;;;;;6.10;5.25;;;;;;;23.09;71.94;100361.80;1832143;77;22198;-62
2021/06/17 11:28:49;;;;;;;5.95;5.45;;;;;;;22.96;72.45;100379.19;1792645;80;21363;-63
2021/06/17 11:31:42;;;;;;;5.85;5.17;;;;;;;22.98;72.67;100387.51;1815740;77;22214;-62
2021/06/17 11:34:36;;;;;;;6.62;5.45;;;;;;;23.00;72.75;100386.93;1834436;77;22559;-61
2021/06/17 11:37:14;;;;;;;7.55;5.60;;;;;;;23.00;72.85;100396.33;1833600;77;22535;-62
2021/06/17 11:39:48;;;;;;;7.37;5.62;;;;;;;23.00;72.87;100385.59;1828986;77;22673;-63
2021/06/17 11:42:22;;;;;;;5.92;5.30;;;;;;;23.01;72.92;100370.37;1834471;77;22180;-62
2021/06/17 11:45:06;;;;;;;9.78;5.78;;;;;;;22.98;73.02;100373.24;1824536;77;22233;-64
2021/06/17 11:47:49;;;;;;;6.00;5.40;;;;;;;22.91;73.25;100375.47;1829512;77;22163;-62
2021/06/17 11:50:22;;;;;;;6.28;5.53;;;;;;;22.85;73.28;100356.59;1829918;77;22242;-63
2021/06/17 11:52:55;;;;;;;7.42;5.47;;;;;;;22.83;73.30;100342.91;1829736;77;23278;-62
2021/06/17 11:55:55;;;;;;;7.20;5.47;;;;;;;22.79;73.48;100353.45;1791609;78;21174;-62
2021/06/17 11:58:31;;;;;;;6.67;6.08;;;;;;;22.82;73.94;100351.91;1815702;77;22207;-62
2021/06/17 12:01:07;;;;;;;9.20;8.40;;;;;;;22.85;74.06;100356.59;1814069;77;28101;-62
2021/06/17 12:04:00;;;;;;;7.37;6.65;;;;;;;22.86;74.05;100354.78;1786951;80;21537;-62
2021/06/17 12:06:29;;;;;;;6.37;5.78;;;;;;;22.94;73.96;100353.81;1806090;77;22163;-62
2021/06/17 12:09:08;;;;;;;7.47;6.05;;;;;;;22.92;74.07;100351.70;1834420;77;22180;-63
2021/06/17 12:11:42;;;;;;;7.42;5.87;;;;;;;22.91;73.97;100349.98;1820968;77;22598;-62
2021/06/17 12:14:15;;;;;;;6.22;5.62;;;;;;;22.89;74.28;100345.19;1818570;77;22197;-62
2021/06/17 12:16:53;;;;;;;6.67;6.08;;;;;;;22.96;73.98;100345.64;1811643;77;22641;-62
2021/06/17 12:19:26;;;;;;;7.00;6.30;;;;;;;22.96;73.87;100332.23;1826592;77;22103;-60